Nevele, Belgium
Current Conditions -  °F | °C
As of 4:25 PM on Friday 19 Dec 2014 (Local Time) from EHFS Reporting Station
Clear Clear  
Wind Chill: 41°   Ceiling: Unl
Heat Index: 48°   Visibility: 6mi
Dew Point: 37°   Wind: 21mph
Humidity: 66%   Direction: 290°WNW
Pressure: 29.97"   Gusts: NA
Location:  51.04°N, 3.55°E
Report Text: EHFS 191525Z AUTO 29018KT 250V320 9999 NSC 09/03 Q1015
Loading
Personal Weather Stations






























Interactive Weather Map New forecast layout! Learn more

10-Day Weather Forecast

Advertisements
Track Severe Weather on mobile